Time;durP1;ratioP1;P1;durP2;ratioP2;P2;SDS_P1;SDS_P2;PMS_P1;PMS_P2;Temp;Humidity;BMP_temperature;BMP_pressure;BME280_temperature;BME280_humidity;BME280_pressure;Samples;Min_cycle;Max_cycle;Signal;HPM_P1;HPM_P2
2023/10/08 00:01:55;;;;;;;8.48;4.90;;;17.20;99.90;;;;;;5035663;28;20100;-49
2023/10/08 00:04:23;;;;;;;10.00;5.03;;;17.20;99.90;;;;;;5035660;28;20037;-53
2023/10/08 00:06:52;;;;;;;7.50;4.40;;;17.20;99.90;;;;;;5035414;28;20137;-45
2023/10/08 00:09:20;;;;;;;9.10;4.82;;;17.20;99.90;;;;;;5035565;28;20132;-49
2023/10/08 00:11:53;;;;;;;9.45;5.00;;;17.20;99.90;;;;;;5035930;28;20037;-50
2023/10/08 00:14:21;;;;;;;7.93;4.85;;;17.20;99.90;;;;;;5036002;28;20052;-51
2023/10/08 00:16:49;;;;;;;9.75;4.55;;;17.20;99.90;;;;;;5035946;28;20072;-50
2023/10/08 00:19:18;;;;;;;9.77;4.60;;;17.10;99.90;;;;;;5035562;28;20049;-50
2023/10/08 00:21:45;;;;;;;9.05;4.78;;;17.10;99.90;;;;;;5034496;28;20103;-46
2023/10/08 00:24:12;;;;;;;12.38;5.13;;;17.10;99.90;;;;;;5035780;28;20195;-52
2023/10/08 00:26:42;;;;;;;9.68;4.47;;;17.10;99.90;;;;;;5035626;28;20076;-50
2023/10/08 00:29:31;;;;;;;10.57;5.10;;;17.00;99.90;;;;;;5035610;28;20385;-50
2023/10/08 00:31:56;;;;;;;9.60;4.57;;;17.00;99.90;;;;;;5035227;28;20389;-51
2023/10/08 00:34:24;;;;;;;10.75;5.10;;;16.90;99.90;;;;;;5033779;28;20585;-47
2023/10/08 00:36:51;;;;;;;10.80;4.90;;;16.90;99.90;;;;;;5033439;28;20537;-47
2023/10/08 00:39:26;;;;;;;9.13;4.93;;;16.90;99.90;;;;;;5034085;28;20477;-52
2023/10/08 00:41:58;;;;;;;8.68;4.35;;;16.80;99.90;;;;;;5035074;28;20049;-45
2023/10/08 00:44:29;;;;;;;8.45;4.88;;;16.80;99.90;;;;;;5035072;28;20058;-48
2023/10/08 00:46:57;;;;;;;9.52;4.78;;;16.80;99.90;;;;;;5035395;28;20058;-47
2023/10/08 00:54:48;;;;;;;8.80;5.07;;;16.70;99.90;;;;;;5033621;28;20053;-51
2023/10/08 00:57:19;;;;;;;8.02;4.82;;;16.70;99.90;;;;;;5034833;28;20034;-50
2023/10/08 00:59:52;;;;;;;7.43;4.45;;;16.60;99.90;;;;;;5035064;28;20045;-50
2023/10/08 01:02:21;;;;;;;10.75;5.22;;;16.60;99.90;;;;;;5034894;28;20037;-52
2023/10/08 01:04:50;;;;;;;9.20;4.88;;;16.50;99.90;;;;;;5033503;28;20047;-50
2023/10/08 01:07:17;;;;;;;7.45;4.47;;;16.40;99.90;;;;;;5033227;28;20064;-52
2023/10/08 01:09:51;;;;;;;8.70;4.82;;;16.40;99.90;;;;;;5034755;28;20034;-50
2023/10/08 01:12:33;;;;;;;7.78;4.63;;;16.40;99.90;;;;;;5034645;28;20037;-51
2023/10/08 01:15:35;;;;;;;8.80;4.45;;;16.40;99.90;;;;;;5034499;28;20053;-51
2023/10/08 01:18:00;;;;;;;10.02;4.95;;;16.30;99.90;;;;;;5033190;28;20053;-49
2023/10/08 01:20:36;;;;;;;11.23;4.85;;;16.30;99.90;;;;;;5032888;28;20072;-44
2023/10/08 01:23:04;;;;;;;;;;;16.30;99.90;;;;;;5034934;28;20042;-50
2023/10/08 01:25:31;;;;;;;9.27;4.70;;;16.30;99.90;;;;;;5034122;28;20264;-47
2023/10/08 01:28:01;;;;;;;8.60;4.68;;;16.20;99.90;;;;;;5034244;28;20056;-47
2023/10/08 01:30:35;;;;;;;7.88;4.50;;;16.20;99.90;;;;;;5016099;28;20080;-50
2023/10/08 01:33:02;;;;;;;7.95;4.70;;;16.20;99.90;;;;;;5032782;28;20429;-51
2023/10/08 01:35:31;;;;;;;8.95;4.90;;;16.20;99.90;;;;;;5034312;28;20163;-48
2023/10/08 01:37:59;;;;;;;8.00;4.65;;;16.20;99.90;;;;;;5034212;28;20076;-47
2023/10/08 01:40:29;;;;;;;10.02;5.18;;;16.20;99.90;;;;;;5016390;28;20041;-47
2023/10/08 01:42:59;;;;;;;11.43;4.82;;;16.20;99.90;;;;;;5034066;28;20064;-48
2023/10/08 01:45:26;;;;;;;7.97;4.18;;;16.20;99.90;;;;;;5032804;28;20057;-47
2023/10/08 01:47:54;;;;;;;7.43;4.80;;;16.20;99.90;;;;;;5033662;28;20041;-48
2023/10/08 01:50:22;;;;;;;7.13;4.57;;;16.20;99.90;;;;;;5032631;28;20073;-46
2023/10/08 01:52:49;;;;;;;9.65;5.07;;;16.20;99.90;;;;;;5033573;28;20507;-49
2023/10/08 01:55:19;;;;;;;10.48;4.82;;;16.20;99.90;;;;;;5016106;28;20072;-49
2023/10/08 01:57:46;;;;;;;8.73;4.63;;;16.20;99.90;;;;;;5032107;28;20037;-48
2023/10/08 02:00:19;;;;;;;9.40;4.70;;;16.20;99.90;;;;;;5031912;28;20046;-48
2023/10/08 02:02:47;;;;;;;7.90;4.60;;;16.20;99.90;;;;;;5033677;28;20467;-47
2023/10/08 02:05:18;;;;;;;9.18;4.88;;;16.30;99.90;;;;;;5033122;28;20497;-45
2023/10/08 02:07:45;;;;;;;9.02;4.97;;;16.30;99.90;;;;;;5033114;28;20037;-44
2023/10/08 02:10:14;;;;;;;9.20;4.90;;;16.30;99.90;;;;;;5031854;28;20144;-45
2023/10/08 02:12:41;;;;;;;9.15;4.97;;;16.30;99.90;;;;;;5032013;28;20099;-47
2023/10/08 02:15:08;;;;;;;7.93;4.85;;;16.30;99.90;;;;;;5032182;28;20132;-48
2023/10/08 02:17:35;;;;;;;8.77;4.30;;;16.30;99.90;;;;;;5033189;28;20381;-47
2023/10/08 02:20:05;;;;;;;7.47;4.40;;;16.30;99.90;;;;;;5031950;28;20041;-53
2023/10/08 02:22:35;;;;;;;9.73;4.47;;;16.30;99.90;;;;;;5033308;28;20493;-50
2023/10/08 02:25:03;;;;;;;10.23;4.47;;;16.30;99.90;;;;;;5033558;28;20064;-50
2023/10/08 02:27:33;;;;;;;9.23;4.32;;;16.40;99.90;;;;;;5033313;28;20095;-46
2023/10/08 02:30:02;;;;;;;7.40;4.10;;;16.40;99.90;;;;;;5033279;28;20152;-46
2023/10/08 02:32:29;;;;;;;9.20;4.53;;;16.30;99.90;;;;;;5031665;28;20056;-52
2023/10/08 02:34:56;;;;;;;9.23;4.82;;;16.30;99.90;;;;;;5033126;28;20041;-46
2023/10/08 02:37:24;;;;;;;8.10;4.60;;;16.30;99.90;;;;;;5031744;28;20393;-48
2023/10/08 02:39:51;;;;;;;8.88;4.43;;;16.20;99.90;;;;;;5033070;28;20041;-51
2023/10/08 02:42:18;;;;;;;8.32;4.70;;;16.20;99.90;;;;;;5033187;28;20096;-47
2023/10/08 02:44:45;;;;;;;8.15;5.07;;;16.10;99.90;;;;;;5033098;28;20050;-51
2023/10/08 02:47:13;;;;;;;9.18;4.43;;;16.10;99.90;;;;;;5032857;28;20037;-48
2023/10/08 02:49:40;;;;;;;8.68;4.50;;;16.00;99.90;;;;;;5032803;28;20073;-48
2023/10/08 02:52:11;;;;;;;11.35;4.63;;;16.00;99.90;;;;;;5032978;28;20099;-53
2023/10/08 02:54:39;;;;;;;7.60;4.30;;;16.00;99.90;;;;;;5032943;28;20045;-48
2023/10/08 02:57:13;;;;;;;7.45;4.18;;;15.90;99.90;;;;;;5033082;28;20492;-49
2023/10/08 02:59:41;;;;;;;8.00;4.47;;;15.90;99.90;;;;;;5031702;28;20046;-48
2023/10/08 03:02:18;;;;;;;6.97;4.43;;;15.80;99.90;;;;;;5031497;28;20124;-51
2023/10/08 03:04:47;;;;;;;8.60;4.20;;;15.80;99.90;;;;;;5031646;28;20080;-50
2023/10/08 03:07:21;;;;;;;7.97;4.78;;;15.70;99.90;;;;;;5032971;28;20095;-49
2023/10/08 03:09:50;;;;;;;8.55;4.82;;;15.70;99.90;;;;;;5031342;28;20049;-48
2023/10/08 03:12:17;;;;;;;6.95;4.18;;;15.70;99.90;;;;;;5032767;28;20136;-52
2023/10/08 03:15:31;;;;;;;9.95;5.38;;;15.70;99.90;;;;;;5031108;28;20072;-51
2023/10/08 03:17:37;;;;;;;9.02;4.65;;;15.70;99.90;;;;;;5027496;28;20037;-51
2023/10/08 03:22:50;;;;;;;6.85;4.00;;;15.70;99.90;;;;;;5031575;28;20104;-50
2023/10/08 03:25:20;;;;;;;8.45;4.70;;;15.60;99.90;;;;;;5031465;28;20052;-48
2023/10/08 03:27:48;;;;;;;10.25;4.82;;;15.60;99.90;;;;;;5032569;28;20072;-51
2023/10/08 03:30:15;;;;;;;11.13;5.05;;;15.60;99.90;;;;;;5031169;28;20120;-50
2023/10/08 03:32:55;;;;;;;10.98;4.70;;;15.60;99.90;;;;;;5031457;28;20042;-49
2023/10/08 03:35:33;;;;;;;9.38;4.50;;;15.60;99.90;;;;;;5031373;28;20049;-48
2023/10/08 03:38:19;;;;;;;9.40;4.80;;;15.60;99.90;;;;;;5032535;28;20382;-47
2023/10/08 03:40:48;;;;;;;7.43;4.57;;;15.60;99.90;;;;;;5034414;28;20048;-48
2023/10/08 03:43:23;;;;;;;6.10;4.05;;;15.60;99.90;;;;;;5036216;28;20488;-48
2023/10/08 03:45:59;;;;;;;7.47;4.28;;;15.60;99.90;;;;;;5035932;28;20080;-48
2023/10/08 03:48:29;;;;;;;9.73;4.57;;;15.50;99.90;;;;;;5035752;28;20477;-45
2023/10/08 03:51:06;;;;;;;8.40;4.63;;;15.50;99.90;;;;;;5036197;28;20096;-46
2023/10/08 03:53:52;;;;;;;9.13;4.97;;;15.50;99.90;;;;;;5035556;28;20045;-50
2023/10/08 03:56:22;;;;;;;9.20;4.72;;;15.40;99.90;;;;;;5035692;28;20081;-50
2023/10/08 03:58:49;;;;;;;9.75;5.05;;;15.40;99.90;;;;;;5035651;28;20040;-46
2023/10/08 04:01:19;;;;;;;9.50;4.65;;;15.40;99.90;;;;;;5035584;28;20100;-45
2023/10/08 04:06:22;;;;;;;8.48;4.70;;;15.30;99.90;;;;;;5035567;28;20045;-50
2023/10/08 04:09:10;;;;;;;11.57;5.28;;;15.20;99.90;;;;;;5033876;28;20147;-46
2023/10/08 04:14:16;;;;;;;7.97;4.97;;;15.20;99.90;;;;;;5035335;28;20120;-47
2023/10/08 04:16:43;;;;;;;9.43;4.82;;;15.20;99.90;;;;;;5035289;28;20497;-48
2023/10/08 04:19:10;;;;;;;9.55;4.85;;;15.10;99.90;;;;;;5035012;28;20045;-47
2023/10/08 04:21:39;;;;;;;10.50;5.13;;;15.10;99.90;;;;;;5035789;28;20046;-49
2023/10/08 04:24:08;;;;;;;8.93;4.63;;;15.10;99.90;;;;;;5035897;28;20144;-49
2023/10/08 04:26:35;;;;;;;10.75;5.15;;;15.10;99.90;;;;;;5035555;28;20042;-50
2023/10/08 04:29:02;;;;;;;8.02;4.90;;;15.10;99.90;;;;;;5035559;28;20444;-47
2023/10/08 04:31:39;;;;;;;8.80;4.70;;;15.10;99.90;;;;;;5035255;28;20136;-51
2023/10/08 04:34:22;;;;;;;11.70;5.00;;;15.00;99.90;;;;;;5035467;28;20041;-45
2023/10/08 04:37:00;;;;;;;7.85;4.80;;;15.00;99.90;;;;;;5035492;28;20037;-48
2023/10/08 04:39:33;;;;;;;8.32;4.60;;;15.00;99.90;;;;;;5035356;28;20120;-48
2023/10/08 04:42:10;;;;;;;9.70;5.63;;;15.00;99.90;;;;;;5035430;28;20081;-51
2023/10/08 04:44:39;;;;;;;8.10;4.93;;;15.00;99.90;;;;;;5035359;28;20045;-48
2023/10/08 04:47:06;;;;;;;10.13;5.40;;;15.00;99.90;;;;;;5034947;28;20534;-50
2023/10/08 04:49:34;;;;;;;10.45;4.63;;;15.00;99.90;;;;;;5035095;28;20046;-49
2023/10/08 04:52:05;;;;;;;10.02;5.18;;;14.90;99.90;;;;;;5032820;28;20508;-50
2023/10/08 04:54:32;;;;;;;8.68;4.80;;;14.90;99.90;;;;;;5034699;28;20038;-47
2023/10/08 04:56:59;;;;;;;12.30;5.28;;;14.90;99.90;;;;;;5034751;28;20057;-49
2023/10/08 04:59:32;;;;;;;7.72;4.70;;;14.90;99.90;;;;;;5034902;28;20143;-49
2023/10/08 05:07:21;;;;;;;9.45;5.50;;;14.70;99.90;;;;;;5033305;28;20111;-47
2023/10/08 05:17:58;;;;;;;9.25;4.88;;;14.60;99.90;;;;;;5032237;28;20061;-47
2023/10/08 05:20:44;;;;;;;9.15;4.93;;;14.50;99.90;;;;;;5034597;28;20049;-52
2023/10/08 05:28:47;;;;;;;9.82;5.55;;;14.50;99.90;;;;;;5034004;28;20045;-45
2023/10/08 05:36:28;;;;;;;9.30;5.43;;;14.40;99.90;;;;;;5034008;28;20045;-45
2023/10/08 05:39:00;;;;;;;7.85;4.47;;;14.40;99.90;;;;;;5034225;28;20473;-49
2023/10/08 05:41:28;;;;;;;7.82;4.68;;;14.40;99.90;;;;;;5033983;28;20112;-44
2023/10/08 05:44:13;;;;;;;10.90;5.05;;;14.40;99.90;;;;;;5034017;28;20422;-45
2023/10/08 05:47:06;;;;;;;12.63;4.88;;;14.40;99.90;;;;;;5016507;28;20412;-48
2023/10/08 06:13:09;;;;;;;9.05;5.45;;;14.20;99.90;;;;;;5033584;28;20041;-47
2023/10/08 06:16:31;;;;;;;8.52;5.35;;;14.10;99.90;;;;;;5033558;28;20117;-49
2023/10/08 06:18:26;;;;;;;8.43;4.78;;;14.10;99.90;;;;;;5029115;28;20081;-51
2023/10/08 06:20:58;;;;;;;8.65;5.03;;;14.20;99.90;;;;;;5033368;28;20037;-47
2023/10/08 06:23:25;;;;;;;10.15;4.70;;;14.20;99.90;;;;;;5033548;28;20042;-53
2023/10/08 06:28:38;;;;;;;10.60;5.35;;;14.10;99.90;;;;;;5033578;28;20400;-46
2023/10/08 06:31:24;;;;;;;8.88;5.03;;;14.10;99.90;;;;;;5033475;28;20033;-49
2023/10/08 06:33:52;;;;;;;7.13;4.60;;;14.10;99.90;;;;;;5033234;28;20120;-50
2023/10/08 06:36:24;;;;;;;8.60;5.00;;;14.10;99.90;;;;;;5033316;28;20061;-49
2023/10/08 06:38:51;;;;;;;9.70;4.80;;;14.10;99.90;;;;;;5033233;28;20477;-48
2023/10/08 06:41:18;;;;;;;8.93;4.80;;;14.10;99.90;;;;;;5033404;28;20148;-50
2023/10/08 06:44:14;;;;;;;8.75;5.40;;;14.20;99.90;;;;;;5033260;28;20546;-47
2023/10/08 06:46:42;;;;;;;9.70;4.90;;;14.10;99.90;;;;;;5033155;28;20447;-51
2023/10/08 06:49:11;;;;;;;8.02;4.80;;;14.20;99.90;;;;;;5033086;28;20128;-45
2023/10/08 06:51:41;;;;;;;8.52;5.05;;;14.10;99.90;;;;;;5033178;28;20045;-45
2023/10/08 06:54:10;;;;;;;8.70;4.82;;;14.20;99.90;;;;;;5032821;28;20060;-46
2023/10/08 06:56:38;;;;;;;10.05;5.50;;;14.20;99.90;;;;;;5033127;28;20053;-52
2023/10/08 06:59:05;;;;;;;8.02;4.78;;;14.20;99.90;;;;;;5033031;28;20068;-49
2023/10/08 07:01:38;;;;;;;8.27;5.03;;;14.30;99.90;;;;;;5032825;28;20124;-51
2023/10/08 07:04:06;;;;;;;8.38;5.00;;;14.30;99.90;;;;;;5032954;28;20535;-46
2023/10/08 07:06:33;;;;;;;8.02;4.95;;;14.30;99.90;;;;;;5033272;28;20057;-51
2023/10/08 07:09:04;;;;;;;9.95;5.47;;;14.40;99.90;;;;;;5033117;28;20056;-48
2023/10/08 07:11:34;;;;;;;8.63;5.72;;;14.40;99.90;;;;;;5032836;28;20048;-48
2023/10/08 07:14:02;;;;;;;11.77;5.97;;;14.40;99.90;;;;;;5032866;28;20049;-51
2023/10/08 07:16:30;;;;;;;9.45;5.20;;;14.50;99.90;;;;;;5035887;28;20037;-46
2023/10/08 07:19:15;;;;;;;8.10;4.90;;;14.50;99.90;;;;;;5037030;28;20037;-49
2023/10/08 07:21:45;;;;;;;7.50;4.68;;;14.60;99.90;;;;;;5036616;28;20107;-51
2023/10/08 07:24:17;;;;;;;10.18;5.10;;;14.60;99.90;;;;;;5036847;28;20042;-50
2023/10/08 07:26:47;;;;;;;10.32;4.93;;;14.70;99.90;;;;;;5036574;28;20053;-51
2023/10/08 07:29:17;;;;;;;11.43;4.90;;;14.70;99.90;;;;;;5036766;28;20373;-47
2023/10/08 07:31:52;;;;;;;11.93;6.03;;;14.80;99.90;;;;;;5036314;28;20037;-45
2023/10/08 07:34:25;;;;;;;11.40;5.97;;;14.90;99.90;;;;;;5036678;28;20095;-48
2023/10/08 07:36:52;;;;;;;7.55;5.18;;;14.90;99.90;;;;;;5036302;28;20121;-51
2023/10/08 07:41:58;;;;;;;8.82;4.53;;;15.00;99.90;;;;;;5036345;28;20057;-44
2023/10/08 07:44:28;;;;;;;10.77;5.20;;;15.10;99.90;;;;;;5036193;28;20049;-49
2023/10/08 07:46:55;;;;;;;10.50;4.95;;;15.20;99.90;;;;;;5036157;28;20088;-51
2023/10/08 07:49:23;;;;;;;10.50;4.97;;;15.20;99.90;;;;;;5036591;28;20041;-46
2023/10/08 07:51:52;;;;;;;7.53;4.30;;;15.30;99.90;;;;;;5036282;28;20056;-46
2023/10/08 07:54:19;;;;;;;8.23;4.50;;;15.40;99.90;;;;;;5036156;28;20053;-50
2023/10/08 07:56:47;;;;;;;14.48;5.25;;;15.50;99.90;;;;;;5036146;28;20042;-45
2023/10/08 07:59:16;;;;;;;9.80;4.63;;;15.60;99.90;;;;;;5035857;28;20046;-49
2023/10/08 08:01:43;;;;;;;8.52;4.80;;;15.70;99.90;;;;;;5036155;28;20073;-51
2023/10/08 08:04:10;;;;;;;9.05;4.68;;;15.80;99.90;;;;;;5036071;28;20049;-50
2023/10/08 08:06:38;;;;;;;8.93;4.82;;;15.90;99.90;;;;;;5035993;28;20115;-46
2023/10/08 08:09:17;;;;;;;9.27;4.63;;;16.00;99.90;;;;;;5035718;28;20100;-49
2023/10/08 08:11:48;;;;;;;11.57;4.88;;;16.00;99.90;;;;;;5035809;28;20492;-48
2023/10/08 08:14:16;;;;;;;8.88;4.43;;;16.10;99.90;;;;;;5035889;28;20045;-48
2023/10/08 08:16:46;;;;;;;11.43;4.72;;;16.20;99.90;;;;;;5035786;28;20120;-48
2023/10/08 08:19:15;;;;;;;13.10;4.30;;;16.20;99.90;;;;;;5035515;28;20033;-47
2023/10/08 08:21:45;;;;;;;14.45;4.75;;;16.40;99.90;;;;;;5036029;28;20038;-49
2023/10/08 08:24:12;;;;;;;10.48;4.78;;;16.40;99.90;;;;;;5035664;28;20044;-48
2023/10/08 08:26:40;;;;;;;10.50;4.55;;;16.50;99.90;;;;;;5035130;28;20060;-44
2023/10/08 08:29:08;;;;;;;9.73;3.83;;;16.60;99.90;;;;;;5034143;28;20489;-46
2023/10/08 08:31:35;;;;;;;6.95;3.72;;;16.70;99.90;;;;;;5035485;28;20388;-47
2023/10/08 08:34:08;;;;;;;11.60;3.67;;;16.70;99.90;;;;;;5035367;28;20037;-46
2023/10/08 08:36:39;;;;;;;8.30;3.90;;;16.80;99.90;;;;;;5035589;28;20431;-48
2023/10/08 08:39:08;;;;;;;12.02;4.15;;;16.90;99.90;;;;;;5035203;28;20057;-46
2023/10/08 08:41:37;;;;;;;11.52;3.85;;;17.00;99.90;;;;;;5035343;28;20037;-48
2023/10/08 08:44:06;;;;;;;7.75;3.53;;;17.20;99.90;;;;;;5035427;28;20056;-46
2023/10/08 08:46:35;;;;;;;7.32;3.85;;;17.20;99.90;;;;;;5035134;28;20049;-45
2023/10/08 08:49:03;;;;;;;10.50;4.07;;;17.30;99.90;;;;;;5033776;28;20046;-50
2023/10/08 08:51:31;;;;;;;8.02;3.75;;;17.40;99.90;;;;;;5034850;28;20461;-46
2023/10/08 08:54:00;;;;;;;8.00;3.97;;;17.50;99.90;;;;;;5035304;28;20045;-47
2023/10/08 08:56:27;;;;;;;9.93;3.70;;;17.60;99.90;;;;;;5033804;28;20095;-49
2023/10/08 08:58:54;;;;;;;10.00;4.32;;;17.60;99.90;;;;;;5034414;28;20473;-49
2023/10/08 09:01:21;;;;;;;7.60;4.32;;;17.70;99.90;;;;;;5034592;28;20129;-50
2023/10/08 09:03:50;;;;;;;8.73;3.90;;;17.70;99.90;;;;;;5034500;28;20476;-46
2023/10/08 09:06:17;;;;;;;7.10;3.40;;;17.80;99.90;;;;;;5034469;28;20077;-53
2023/10/08 09:08:45;;;;;;;9.30;4.00;;;17.90;99.90;;;;;;5033497;28;20053;-50
2023/10/08 09:11:12;;;;;;;7.80;4.32;;;18.00;99.90;;;;;;5033602;28;20073;-47
2023/10/08 09:13:40;;;;;;;10.05;3.30;;;18.20;99.90;;;;;;5034382;28;20037;-50
2023/10/08 09:16:06;;;;;;;6.65;3.28;;;18.20;99.90;;;;;;5034885;28;20045;-47
2023/10/08 09:18:33;;;;;;;11.95;3.83;;;18.30;99.90;;;;;;5034241;28;20072;-47
2023/10/08 09:21:00;;;;;;;7.03;3.80;;;18.40;99.90;;;;;;5034534;28;20045;-51
2023/10/08 09:23:28;;;;;;;8.65;3.63;;;18.40;99.90;;;;;;5034209;28;20049;-53
2023/10/08 09:26:02;;;;;;;9.25;3.60;;;18.50;99.90;;;;;;5034736;28;20048;-48
2023/10/08 09:28:29;;;;;;;9.35;3.38;;;18.50;99.90;;;;;;5034097;28;20524;-49
2023/10/08 09:30:58;;;;;;;8.85;3.58;;;18.60;99.90;;;;;;5033983;28;20168;-49
2023/10/08 09:33:25;;;;;;;8.63;3.88;;;18.70;99.90;;;;;;5034237;28;20476;-48
2023/10/08 09:35:57;;;;;;;12.10;4.18;;;18.70;99.90;;;;;;5033966;28;20381;-53
2023/10/08 09:38:25;;;;;;;8.90;3.97;;;18.80;99.90;;;;;;5033018;28;20049;-51
2023/10/08 09:40:53;;;;;;;11.15;3.30;;;18.90;99.90;;;;;;5033805;28;20095;-49
2023/10/08 09:43:20;;;;;;;7.68;3.80;;;19.00;99.90;;;;;;5034018;28;20451;-50
2023/10/08 09:45:47;;;;;;;8.57;3.70;;;19.00;99.90;;;;;;5034025;28;20041;-48
2023/10/08 09:48:13;;;;;;;9.65;3.92;;;19.10;99.90;;;;;;5033698;28;20047;-49
2023/10/08 09:50:40;;;;;;;9.57;3.67;;;19.20;99.90;;;;;;5033859;28;20486;-46
2023/10/08 09:53:10;;;;;;;9.07;3.83;;;19.30;99.90;;;;;;5033299;28;20050;-44
2023/10/08 09:55:37;;;;;;;10.18;3.65;;;19.40;99.90;;;;;;5034280;28;20069;-45
2023/10/08 09:58:04;;;;;;;9.27;3.55;;;19.40;99.90;;;;;;5033513;28;20140;-47
2023/10/08 10:00:31;;;;;;;7.70;3.78;;;19.40;99.90;;;;;;5033435;28;20380;-47
2023/10/08 10:02:58;;;;;;;12.45;7.95;;;19.50;99.90;;;;;;5033147;28;20041;-47
2023/10/08 10:05:25;;;;;;;10.60;3.70;;;19.50;99.90;;;;;;5033709;28;20124;-45
2023/10/08 10:07:54;;;;;;;7.82;3.45;;;19.60;99.90;;;;;;5033164;28;20060;-44
2023/10/08 10:10:21;;;;;;;7.13;3.85;;;19.70;99.90;;;;;;5033075;28;20128;-44
2023/10/08 10:12:47;;;;;;;9.32;3.92;;;19.80;99.90;;;;;;5033133;28;20048;-45
2023/10/08 10:15:17;;;;;;;13.05;3.70;;;19.80;99.90;;;;;;5031845;28;20044;-45
2023/10/08 10:17:57;;;;;;;6.00;3.42;;;19.90;99.90;;;;;;5032120;28;20049;-48
2023/10/08 10:20:24;;;;;;;9.38;3.50;;;19.90;99.90;;;;;;5033248;28;20042;-51
2023/10/08 10:22:51;;;;;;;9.77;3.78;;;19.90;99.90;;;;;;5033472;28;20038;-52
2023/10/08 10:25:18;;;;;;;8.88;3.72;;;20.00;99.90;;;;;;5033456;28;20072;-50
2023/10/08 10:27:45;;;;;;;8.23;3.67;;;20.00;99.90;;;;;;5033163;28;20052;-55
2023/10/08 10:30:16;;;;;;;9.07;4.07;;;20.00;99.90;;;;;;5032539;28;20042;-51
2023/10/08 10:32:43;;;;;;;7.53;3.83;;;20.10;99.90;;;;;;5032667;28;20038;-51
2023/10/08 10:35:11;;;;;;;10.60;3.63;;;20.10;99.90;;;;;;5032957;28;20045;-48
2023/10/08 10:37:41;;;;;;;9.10;3.60;;;20.30;99.90;;;;;;5031872;28;20041;-51
2023/10/08 10:40:12;;;;;;;7.63;3.65;;;20.40;99.90;;;;;;5032750;28;20042;-48
2023/10/08 10:42:42;;;;;;;6.53;3.67;;;20.40;99.90;;;;;;5030822;28;20040;-48
2023/10/08 10:45:10;;;;;;;6.07;4.20;;;20.50;99.90;;;;;;5032801;28;20115;-49
2023/10/08 10:47:43;;;;;;;10.52;4.10;;;20.60;99.90;;;;;;5031299;28;20461;-47
2023/10/08 10:50:26;;;;;;;7.57;4.00;;;20.70;99.90;;;;;;5032296;28;20045;-47
2023/10/08 10:52:53;;;;;;;52.67;6.93;;;20.70;99.90;;;;;;5031723;28;20463;-45
2023/10/08 10:55:22;;;;;;;7.85;4.18;;;20.70;99.90;;;;;;5032571;28;20132;-46
2023/10/08 10:58:11;;;;;;;14.85;6.15;;;20.70;99.90;;;;;;5032370;28;20038;-50
2023/10/08 11:03:17;;;;;;;9.90;4.47;;;20.90;99.90;;;;;;5032556;28;20045;-54
2023/10/08 11:05:48;;;;;;;8.07;3.95;;;21.00;99.90;;;;;;5032452;28;20103;-46
2023/10/08 11:08:15;;;;;;;10.85;3.95;;;21.00;99.90;;;;;;5032508;28;20051;-52
2023/10/08 11:10:46;;;;;;;7.18;3.97;;;21.10;99.90;;;;;;5032975;28;20044;-49
2023/10/08 11:13:17;;;;;;;10.20;4.22;;;21.30;99.90;;;;;;5032596;28;20045;-49
2023/10/08 11:15:48;;;;;;;10.02;4.15;;;21.40;99.90;;;;;;5032624;28;20125;-50
2023/10/08 11:18:15;;;;;;;9.52;4.00;;;21.50;99.90;;;;;;5031099;28;20052;-48
2023/10/08 11:20:45;;;;;;;7.55;3.60;;;21.50;99.90;;;;;;5032363;28;20042;-46
2023/10/08 11:23:18;;;;;;;8.20;3.88;;;21.60;99.90;;;;;;5032246;28;20124;-49
2023/10/08 11:25:46;;;;;;;9.70;3.88;;;21.70;99.90;;;;;;5031430;28;20536;-49
2023/10/08 11:28:13;;;;;;;6.20;3.35;;;21.80;99.90;;;;;;5032151;28;20038;-44
2023/10/08 11:30:42;;;;;;;6.25;3.55;;;21.90;99.80;;;;;;5031986;28;20224;-49
2023/10/08 11:33:15;;;;;;;7.82;3.90;;;21.90;99.80;;;;;;5031396;28;20088;-45
2023/10/08 11:35:51;;;;;;;10.77;3.83;;;21.90;99.70;;;;;;5032256;28;20038;-48
2023/10/08 11:38:22;;;;;;;8.15;3.70;;;22.00;99.90;;;;;;5030185;28;20038;-49
2023/10/08 11:40:49;;;;;;;7.53;3.75;;;22.10;99.70;;;;;;5034843;28;20033;-51
2023/10/08 11:43:16;;;;;;;5.50;3.60;;;22.20;99.20;;;;;;5025686;28;20485;-47
2023/10/08 11:45:48;;;;;;;7.57;3.70;;;22.30;98.80;;;;;;5033500;28;20049;-46
2023/10/08 11:48:21;;;;;;;7.28;3.67;;;22.40;98.20;;;;;;5025697;28;20112;-49
2023/10/08 11:50:50;;;;;;;6.82;3.30;;;22.50;98.00;;;;;;5032127;28;20046;-45
2023/10/08 11:53:19;;;;;;;6.50;3.65;;;22.60;98.20;;;;;;5031637;28;20045;-49
2023/10/08 11:55:47;;;;;;;6.03;3.47;;;22.60;97.50;;;;;;5031105;28;20420;-47
2023/10/08 11:58:19;;;;;;;6.40;3.53;;;22.60;97.60;;;;;;5031635;28;20044;-51
2023/10/08 12:00:52;;;;;;;8.43;3.78;;;22.60;97.60;;;;;;5031895;28;20034;-48
2023/10/08 12:03:19;;;;;;;6.63;3.35;;;22.60;97.80;;;;;;5035473;28;20042;-51
2023/10/08 12:05:47;;;;;;;10.07;3.45;;;22.70;97.40;;;;;;5034723;28;20044;-46
2023/10/08 12:08:16;;;;;;;7.80;3.50;;;22.80;97.50;;;;;;5035687;28;20041;-50
2023/10/08 12:10:43;;;;;;;8.63;3.78;;;22.90;97.60;;;;;;5034394;28;20064;-47
2023/10/08 12:13:10;;;;;;;5.70;3.47;;;23.00;97.00;;;;;;5035817;28;20041;-48
2023/10/08 12:15:41;;;;;;;7.55;3.65;;;23.00;97.10;;;;;;5035538;28;20053;-47
2023/10/08 12:18:08;;;;;;;7.75;3.20;;;23.10;97.20;;;;;;5035364;28;20045;-51
2023/10/08 12:20:37;;;;;;;4.90;3.20;;;23.00;96.70;;;;;;5035082;28;20045;-51
2023/10/08 12:23:04;;;;;;;5.90;3.03;;;23.10;96.70;;;;;;5032945;28;20042;-53
2023/10/08 12:25:32;;;;;;;8.73;3.00;;;23.10;96.30;;;;;;5035219;28;20125;-48
2023/10/08 12:28:02;;;;;;;6.95;3.50;;;23.00;96.80;;;;;;5031722;28;20041;-48
2023/10/08 12:30:30;;;;;;;9.18;3.08;;;23.10;96.40;;;;;;5025948;28;20072;-50
2023/10/08 12:32:58;;;;;;;5.93;3.15;;;23.10;96.50;;;;;;5027341;28;20108;-52
2023/10/08 12:35:24;;;;;;;4.30;2.83;;;23.00;96.60;;;;;;5029140;28;20037;-49
2023/10/08 12:37:51;;;;;;;7.97;2.80;;;23.00;96.40;;;;;;5028336;28;20038;-50
2023/10/08 12:40:24;;;;;;;7.57;3.00;;;23.10;95.60;;;;;;5025086;28;20065;-51
2023/10/08 12:42:51;;;;;;;6.13;3.00;;;23.10;95.40;;;;;;5019799;28;20056;-52
2023/10/08 12:45:20;;;;;;;6.43;3.10;;;23.00;95.60;;;;;;5027265;28;20485;-52
2023/10/08 12:47:47;;;;;;;8.80;3.20;;;23.00;95.70;;;;;;5021009;28;20046;-49
2023/10/08 12:50:15;;;;;;;5.38;2.65;;;23.00;95.60;;;;;;5028031;28;20540;-51
2023/10/08 12:52:47;;;;;;;5.13;3.00;;;23.00;95.40;;;;;;5033462;28;20041;-48
2023/10/08 12:55:14;;;;;;;6.72;2.90;;;23.00;95.40;;;;;;5034733;28;20044;-49
2023/10/08 12:57:42;;;;;;;4.30;2.85;;;23.00;95.60;;;;;;5034425;28;20103;-52
2023/10/08 13:00:08;;;;;;;5.25;3.00;;;23.00;95.50;;;;;;5033826;28;20049;-51
2023/10/08 13:02:39;;;;;;;8.30;3.35;;;23.00;95.80;;;;;;5034577;28;20049;-55
2023/10/08 13:05:15;;;;;;;6.88;2.70;;;23.10;96.00;;;;;;5029911;28;20116;-48
2023/10/08 13:07:44;;;;;;;4.50;3.10;;;23.10;96.00;;;;;;5034511;28;20110;-51
2023/10/08 13:10:14;;;;;;;7.75;3.40;;;23.10;96.00;;;;;;5033588;28;20049;-48
2023/10/08 13:12:41;;;;;;;4.80;2.72;;;23.10;96.30;;;;;;5034617;28;20045;-47
2023/10/08 13:15:08;;;;;;;7.28;3.10;;;23.20;96.00;;;;;;5033889;28;20099;-48
2023/10/08 13:17:35;;;;;;;8.32;3.38;;;23.10;96.10;;;;;;5034220;28;20127;-52
2023/10/08 13:20:02;;;;;;;6.15;3.03;;;23.10;95.90;;;;;;5034024;28;20045;-48
2023/10/08 13:22:29;;;;;;;11.00;3.58;;;23.10;96.40;;;;;;5033647;28;20143;-54
2023/10/08 13:24:55;;;;;;;7.57;3.22;;;23.10;96.40;;;;;;5033887;28;20053;-53
2023/10/08 13:27:23;;;;;;;7.25;3.20;;;23.00;96.60;;;;;;5033243;28;20053;-48
2023/10/08 13:29:51;;;;;;;8.95;3.40;;;23.00;96.70;;;;;;5034022;28;20424;-52
2023/10/08 13:32:18;;;;;;;5.65;2.80;;;23.00;96.80;;;;;;5032934;28;20052;-51
2023/10/08 13:34:46;;;;;;;10.38;3.30;;;23.00;96.60;;;;;;5033997;28;20099;-48
2023/10/08 13:37:15;;;;;;;9.98;3.47;;;23.00;96.90;;;;;;5032804;28;20092;-48
2023/10/08 13:39:42;;;;;;;5.03;2.80;;;23.10;96.60;;;;;;5033923;28;20073;-47
2023/10/08 13:42:08;;;;;;;9.65;3.60;;;23.00;96.90;;;;;;5032952;28;20037;-55
2023/10/08 13:44:35;;;;;;;5.97;3.05;;;23.10;96.90;;;;;;5034029;28;20068;-50
2023/10/08 13:47:05;;;;;;;5.97;3.33;;;23.10;97.20;;;;;;5032444;28;20076;-55
2023/10/08 13:49:32;;;;;;;7.35;3.30;;;23.00;97.10;;;;;;5033294;28;20056;-51
2023/10/08 13:51:59;;;;;;;6.03;2.90;;;23.00;97.40;;;;;;5032509;28;20400;-53
2023/10/08 13:54:29;;;;;;;7.95;3.10;;;23.10;97.00;;;;;;5033338;28;20450;-44
2023/10/08 13:56:56;;;;;;;8.55;2.90;;;23.00;97.20;;;;;;5033219;28;20049;-48
2023/10/08 13:59:25;;;;;;;6.72;3.25;;;23.00;97.20;;;;;;5033032;28;20034;-46
2023/10/08 14:01:52;;;;;;;6.63;3.70;;;23.00;97.10;;;;;;5033167;28;20060;-51
2023/10/08 14:04:19;;;;;;;5.30;3.25;;;23.00;97.30;;;;;;5032291;28;20578;-47
2023/10/08 14:06:54;;;;;;;9.35;3.40;;;23.10;97.60;;;;;;5033170;28;20459;-47
2023/10/08 14:09:30;;;;;;;5.13;3.30;;;23.20;98.00;;;;;;5033201;28;20520;-52